Time;durP1;ratioP1;P1;durP2;ratioP2;P2;SDS_P1;SDS_P2;PMS_P1;PMS_P2;Temp;Humidity;BMP_temperature;BMP_pressure;BME280_temperature;BME280_humidity;BME280_pressure;Samples;Min_cycle;Max_cycle;Signal;HPM_P1;HPM_P2
2023/06/16 00:01:37;;;;;;;15.43;11.07;;;;;;;19.86;100.00;101527.38;5052624;28;20029;-72
2023/06/16 00:04:03;;;;;;;12.68;11.07;;;;;;;20.01;100.00;101562.06;5051820;28;20065;-72
2023/06/16 00:09:50;;;;;;;14.52;10.80;;;;;;;20.18;100.00;101555.31;5052652;28;20456;-72
2023/06/16 00:15:37;;;;;;;12.70;11.40;;;;;;;19.49;100.00;101463.53;5041000;28;20407;-75
2023/06/16 00:18:02;;;;;;;12.52;11.23;;;;;;;19.59;100.00;101480.31;5051848;28;20029;-72
2023/06/16 00:20:29;;;;;;;13.45;11.13;;;;;;;19.50;100.00;101488.44;5051599;28;20029;-71
2023/06/16 00:22:57;;;;;;;13.70;11.20;;;;;;;19.44;100.00;101462.88;5052147;28;20566;-74
2023/06/16 00:25:22;;;;;;;14.55;11.15;;;;;;;19.96;100.00;101561.41;5050642;28;20119;-74
2023/06/16 00:27:48;;;;;;;12.45;11.05;;;;;;;19.72;100.00;101556.34;5051056;28;20562;-74
2023/06/16 00:30:14;;;;;;;17.08;11.55;;;;;;;19.13;100.00;101449.50;5051521;28;20061;-72
2023/06/16 00:32:39;;;;;;;14.57;11.65;;;;;;;19.47;100.00;101500.63;5052224;28;20033;-72
2023/06/16 00:35:05;;;;;;;12.05;10.85;;;;;;;19.71;100.00;101520.25;5034199;28;20468;-72
2023/06/16 00:37:31;;;;;;;14.85;11.75;;;;;;;19.18;100.00;101433.84;5050913;28;20029;-72
2023/06/16 00:39:57;;;;;;;13.23;10.98;;;;;;;19.92;100.00;101542.63;5056159;28;20047;-72
2023/06/16 00:42:22;;;;;;;12.48;11.18;;;;;;;19.61;100.00;101485.44;5055250;28;20124;-72
2023/06/16 00:44:47;;;;;;;12.55;11.15;;;;;;;19.63;100.00;101489.59;5055839;28;20025;-72
2023/06/16 00:47:13;;;;;;;14.82;11.50;;;;;;;19.23;100.00;101417.28;5055205;28;20083;-72
2023/06/16 00:49:39;;;;;;;12.52;11.13;;;;;;;19.36;100.00;101413.34;5053773;28;20025;-76
2023/06/16 00:52:07;;;;;;;12.85;11.43;;;;;;;19.96;100.00;101508.03;5055993;28;20093;-72
2023/06/16 00:54:33;;;;;;;12.48;11.23;;;;;;;19.95;100.00;101496.00;5054607;28;20116;-72
2023/06/16 00:56:59;;;;;;;13.50;12.13;;;;;;;20.05;100.00;101504.19;5056209;28;20066;-72
2023/06/16 00:59:27;;;;;;;13.80;12.38;;;;;;;19.83;100.00;101499.94;5055453;28;20028;-72
2023/06/16 01:01:54;;;;;;;14.88;12.05;;;;;;;19.94;100.00;101490.91;5055467;28;20398;-73
2023/06/16 01:04:21;;;;;;;13.90;11.77;;;;;;;19.41;100.00;101424.28;5054506;28;20075;-72
2023/06/16 01:07:11;;;;;;;14.57;12.02;;;;;;;19.91;100.00;101481.56;5055726;28;20016;-72
2023/06/16 01:13:22;;;;;;;13.40;11.73;;;;;;;19.81;100.00;101438.94;5055825;28;20151;-72
2023/06/16 01:15:49;;;;;;;12.95;11.65;;;;;;;19.68;100.00;101420.59;5044840;28;20052;-73
2023/06/16 01:18:22;;;;;;;13.35;11.60;;;;;;;20.03;100.00;101475.03;5037583;28;20021;-72
2023/06/16 01:21:01;;;;;;;14.52;13.00;;;;;;;19.87;100.00;101467.09;5037421;28;20021;-73
2023/06/16 01:23:35;;;;;;;13.75;12.30;;;;;;;20.01;100.00;101462.19;5055031;28;20487;-73
2023/06/16 01:26:04;;;;;;;15.35;12.55;;;;;;;19.64;100.00;101382.91;5055255;28;20029;-73
2023/06/16 01:28:32;;;;;;;14.73;12.60;;;;;;;20.08;100.00;101437.78;5054924;28;20029;-73
2023/06/16 01:31:00;;;;;;;15.63;12.18;;;;;;;20.24;100.00;101420.75;5055061;28;20380;-73
2023/06/16 01:36:48;;;;;;;16.10;13.57;;;;;;;19.80;100.00;101385.66;5055287;28;20078;-72
2023/06/16 01:39:16;;;;;;;15.98;12.30;;;;;;;19.80;100.00;101408.88;5053722;28;20029;-73
2023/06/16 01:41:42;;;;;;;11.95;10.75;;;;;;;19.79;100.00;101350.41;5054988;28;20411;-71
2023/06/16 01:44:08;;;;;;;15.85;13.70;;;;;;;19.85;100.00;101378.53;5036957;28;20049;-74
2023/06/16 01:49:56;;;;;;;20.58;14.55;;;;;;;19.75;100.00;101323.06;5054030;28;20551;-71
2023/06/16 01:52:21;;;;;;;18.85;14.95;;;;;;;19.19;100.00;101217.16;5053935;28;20504;-71
2023/06/16 01:54:47;;;;;;;17.67;15.65;;;;;;;19.45;100.00;101283.13;5053003;28;20116;-71
2023/06/16 01:57:12;;;;;;;21.25;16.10;;;;;;;19.31;100.00;101198.59;5052683;28;20470;-72
2023/06/16 01:59:38;;;;;;;21.73;16.80;;;;;;;18.72;100.00;101014.75;5052813;28;20498;-72
2023/06/16 02:02:14;;;;;;;21.70;17.20;;;;;;;19.40;100.00;101017.63;5053724;28;20033;-72
2023/06/16 02:04:44;;;;;;;21.27;16.52;;;;;;;19.10;100.00;100842.84;5051463;28;20483;-72
2023/06/16 02:07:14;;;;;;;19.48;16.80;;;;;;;19.05;100.00;100727.09;5054740;28;20025;-73
2023/06/16 02:09:42;;;;;;;22.15;16.23;;;;;;;19.51;100.00;100692.88;5054373;28;20031;-72
2023/06/16 02:12:11;;;;;;;19.08;16.70;;;;;;;19.42;100.00;100589.34;5053064;28;20384;-72
2023/06/16 02:14:38;;;;;;;19.92;17.02;;;;;;;19.30;100.00;100450.72;5036110;28;20024;-72
2023/06/16 02:17:09;;;;;;;20.05;17.80;;;;;;;19.30;100.00;100392.25;5054134;28;20029;-72
2023/06/16 02:19:34;;;;;;;23.58;18.48;;;;;;;19.19;100.00;100280.34;5054599;28;20024;-72
2023/06/16 02:22:00;;;;;;;20.02;17.75;;;;;;;19.37;100.00;100124.59;5053832;28;20032;-72
2023/06/16 02:24:27;;;;;;;19.63;17.52;;;;;;;19.42;100.00;100006.47;5053984;28;20059;-72
2023/06/16 02:26:52;;;;;;;22.60;17.50;;;;;;;19.25;100.00;99944.84;5054030;28;20044;-72
2023/06/16 02:29:18;;;;;;;22.70;17.85;;;;;;;19.13;100.00;99941.28;5052464;28;20095;-72
2023/06/16 02:31:50;;;;;;;23.48;17.48;;;;;;;19.05;100.00;99872.16;5053513;28;20471;-74
2023/06/16 02:34:16;;;;;;;26.13;17.88;;;;;;;18.93;100.00;99842.06;5052524;28;20024;-74
2023/06/16 02:36:43;;;;;;;23.95;18.88;;;;;;;19.04;100.00;99916.91;5054579;28;20029;-74
2023/06/16 02:42:31;;;;;;;22.13;18.23;;;;;;;19.13;100.00;99955.91;5053972;28;20399;-75
2023/06/16 02:44:57;;;;;;;20.02;17.90;;;;;;;18.72;100.00;99909.53;5053184;28;20033;-74
2023/06/16 02:47:22;;;;;;;20.85;17.92;;;;;;;18.94;100.00;100031.81;5054060;28;20021;-74
2023/06/16 02:49:48;;;;;;;20.88;17.88;;;;;;;18.79;100.00;100007.00;5035605;28;20020;-75
2023/06/16 02:52:14;;;;;;;20.27;17.90;;;;;;;18.90;100.00;100053.53;5053663;28;20548;-74
2023/06/16 02:54:40;;;;;;;24.27;17.80;;;;;;;18.93;100.00;100155.59;5053771;28;20033;-74
2023/06/16 02:57:07;;;;;;;19.38;15.52;;;;;;;19.28;100.00;100213.59;5035775;28;20033;-74
2023/06/16 03:02:54;;;;;;;20.73;16.25;;;;;;;19.27;100.00;100260.09;5053803;28;20101;-74
2023/06/16 03:05:20;;;;;;;20.48;16.08;;;;;;;19.29;100.00;100295.22;5053088;28;20120;-74
2023/06/16 03:07:46;;;;;;;18.35;16.35;;;;;;;18.96;100.00;100272.19;5053307;28;20021;-73
2023/06/16 03:10:13;;;;;;;17.60;15.35;;;;;;;18.91;100.00;100224.44;5035152;28;20537;-74
2023/06/16 03:12:38;;;;;;;17.52;15.65;;;;;;;19.27;100.00;100322.00;5051125;28;20107;-74
2023/06/16 03:15:04;;;;;;;19.13;15.43;;;;;;;19.07;100.00;100340.34;5053355;28;20421;-74
2023/06/16 03:17:30;;;;;;;16.70;15.00;;;;;;;18.90;100.00;100312.94;5034285;28;20029;-74
2023/06/16 03:19:55;;;;;;;16.95;15.13;;;;;;;18.59;100.00;100294.97;5051788;28;20483;-74
2023/06/16 03:22:21;;;;;;;15.90;13.55;;;;;;;19.54;100.00;100408.94;5052621;28;20448;-74
2023/06/16 03:24:47;;;;;;;16.23;14.63;;;;;;;18.92;100.00;100335.16;5051269;28;20048;-73
2023/06/16 03:27:15;;;;;;;18.58;14.63;;;;;;;19.17;100.00;100355.22;5053716;28;20076;-74
2023/06/16 03:29:40;;;;;;;17.77;14.90;;;;;;;19.31;100.00;100418.88;5053173;28;20475;-73
2023/06/16 03:32:07;;;;;;;16.75;13.75;;;;;;;19.11;100.00;100365.88;5052224;28;20029;-74
2023/06/16 03:34:32;;;;;;;18.77;14.38;;;;;;;18.99;100.00;100406.03;5052922;28;20495;-73
2023/06/16 03:36:57;;;;;;;18.52;15.35;;;;;;;19.13;100.00;100441.38;5051583;28;20024;-74
2023/06/16 03:39:23;;;;;;;16.50;14.80;;;;;;;19.16;100.00;100437.78;5052604;28;20463;-74
2023/06/16 03:41:48;;;;;;;19.08;15.30;;;;;;;19.09;100.00;100459.66;5051146;28;20029;-73
2023/06/16 03:44:14;;;;;;;19.05;14.70;;;;;;;19.07;100.00;100395.31;5052325;28;20029;-74
2023/06/16 03:46:40;;;;;;;19.38;14.18;;;;;;;19.40;100.00;100459.66;5053006;28;20041;-74
2023/06/16 03:52:26;;;;;;;16.85;14.23;;;;;;;19.31;100.00;100444.69;5053063;28;20035;-75
2023/06/16 03:54:52;;;;;;;18.95;15.02;;;;;;;19.58;100.00;100432.81;5052865;28;20116;-75
2023/06/16 03:57:18;;;;;;;16.83;15.02;;;;;;;19.57;100.00;100441.47;5051495;28;20083;-76
2023/06/16 03:59:43;;;;;;;17.73;14.27;;;;;;;19.25;100.00;100393.44;5052893;28;20040;-74
2023/06/16 04:05:31;;;;;;;17.02;14.05;;;;;;;19.54;100.00;100418.44;5053623;28;20035;-76
2023/06/16 04:07:57;;;;;;;16.30;13.98;;;;;;;19.59;100.00;100434.50;5053320;28;20029;-76
2023/06/16 04:10:22;;;;;;;16.33;13.55;;;;;;;19.23;100.00;100411.59;5034635;28;20115;-76
2023/06/16 04:12:47;;;;;;;18.35;14.65;;;;;;;19.75;100.00;100461.03;5052380;28;20111;-78
2023/06/16 04:15:13;;;;;;;17.25;14.38;;;;;;;19.14;100.00;100344.22;5050790;28;20132;-76
2023/06/16 04:17:38;;;;;;;15.27;13.68;;;;;;;19.02;100.00;100364.63;5051066;28;20463;-75
2023/06/16 04:20:09;;;;;;;16.02;14.38;;;;;;;19.41;100.00;100405.38;5052817;28;20025;-76
2023/06/16 04:22:35;;;;;;;17.52;14.57;;;;;;;19.18;100.00;100395.53;5051526;28;20079;-74
2023/06/16 04:25:00;;;;;;;16.58;14.40;;;;;;;19.66;100.00;100449.53;5052248;28;20490;-74
2023/06/16 04:27:28;;;;;;;16.63;14.85;;;;;;;19.44;100.00;100422.44;5052315;28;20029;-74
2023/06/16 04:29:54;;;;;;;18.10;14.82;;;;;;;19.08;100.00;100373.75;5034039;28;20033;-74
2023/06/16 04:32:20;;;;;;;18.58;15.18;;;;;;;19.78;100.00;100484.94;5051628;28;20025;-74
2023/06/16 04:34:46;;;;;;;17.60;15.75;;;;;;;19.98;100.00;100488.94;5052011;28;20036;-74
2023/06/16 04:37:14;;;;;;;18.92;15.48;;;;;;;20.04;100.00;100490.31;5050874;28;20033;-73
2023/06/16 04:39:40;;;;;;;17.02;15.07;;;;;;;19.87;100.00;100497.31;5033933;28;20031;-74
2023/06/16 04:42:08;;;;;;;20.50;16.25;;;;;;;19.86;100.00;100481.91;5051937;28;20471;-74
2023/06/16 04:44:34;;;;;;;16.73;15.00;;;;;;;19.96;100.00;100474.47;5052219;28;20086;-74
2023/06/16 04:47:00;;;;;;;19.23;14.98;;;;;;;20.05;100.00;100438.59;5034180;28;20120;-73
2023/06/16 04:52:49;;;;;;;17.33;14.18;;;;;;;20.41;100.00;100495.84;5052236;28;20044;-74
2023/06/16 04:55:16;;;;;;;18.23;14.48;;;;;;;20.43;100.00;100481.06;5051979;28;20143;-74
2023/06/16 04:57:42;;;;;;;16.85;15.15;;;;;;;20.24;100.00;100501.19;5034388;28;20072;-74
2023/06/16 05:00:09;;;;;;;17.17;15.35;;;;;;;20.32;100.00;100500.72;5050659;28;20078;-74
2023/06/16 05:05:56;;;;;;;17.80;14.85;;;;;;;20.35;100.00;100523.78;5051840;28;20071;-73
2023/06/16 05:08:22;;;;;;;16.50;14.80;;;;;;;19.96;100.00;100466.72;5050970;28;20037;-74
2023/06/16 05:10:47;;;;;;;17.25;14.93;;;;;;;20.29;100.00;100544.81;5050490;28;20064;-73
2023/06/16 05:13:13;;;;;;;18.65;14.23;;;;;;;20.48;100.00;100510.03;5051782;28;20128;-75
2023/06/16 05:15:38;;;;;;;15.63;13.63;;;;;;;20.17;100.00;100489.50;5051293;28;20423;-73
2023/06/16 05:18:04;;;;;;;15.60;14.02;;;;;;;20.72;100.00;100562.84;5051746;28;20108;-72
2023/06/16 05:20:31;;;;;;;15.82;13.70;;;;;;;20.52;100.00;100496.00;5051702;28;20025;-73
2023/06/16 05:22:57;;;;;;;15.48;12.18;;;;;;;20.99;100.00;100575.00;5051976;28;20052;-73
2023/06/16 05:25:22;;;;;;;13.23;11.82;;;;;;;20.93;100.00;100581.41;5054167;28;20061;-73
2023/06/16 05:27:48;;;;;;;14.55;12.10;;;;;;;21.04;100.00;100555.72;5037139;28;20108;-72
2023/06/16 05:30:13;;;;;;;15.40;12.43;;;;;;;20.88;100.00;100507.63;5053580;28;20057;-73
2023/06/16 05:32:39;;;;;;;15.68;12.10;;;;;;;21.01;100.00;100532.66;5037364;28;20025;-74
2023/06/16 05:35:05;;;;;;;13.93;12.13;;;;;;;21.40;100.00;100627.63;5053609;28;20111;-73
2023/06/16 05:37:30;;;;;;;12.88;11.40;;;;;;;21.23;100.00;100560.59;5052808;28;20024;-73
2023/06/16 05:43:17;;;;;;;10.37;9.30;;;;;;;21.56;100.00;100602.47;5055250;28;20456;-72
2023/06/16 05:45:42;;;;;;;12.77;10.15;;;;;;;21.69;100.00;100641.34;5054253;28;20033;-73
2023/06/16 05:48:08;;;;;;;14.15;10.07;;;;;;;21.47;100.00;100592.69;5053514;28;20112;-73
2023/06/16 05:50:33;;;;;;;14.20;9.68;;;;;;;21.57;100.00;100617.06;5053555;28;20120;-73
2023/06/16 05:52:59;;;;;;;12.07;8.80;;;;;;;21.54;100.00;100628.44;5053227;28;20025;-74
2023/06/16 05:55:24;;;;;;;9.05;8.15;;;;;;;22.29;100.00;100674.53;5054236;28;20029;-75
2023/06/16 05:57:49;;;;;;;9.23;7.80;;;;;;;22.42;100.00;100684.94;5036435;28;20028;-73
2023/06/16 06:00:15;;;;;;;7.63;6.82;;;;;;;22.00;100.00;100635.91;5052946;28;20032;-74
2023/06/16 06:02:41;;;;;;;9.10;6.10;;;;;;;22.36;100.00;100693.94;5054583;28;20044;-73
2023/06/16 06:05:06;;;;;;;7.07;5.82;;;;;;;22.49;100.00;100690.53;5052524;28;20037;-72
2023/06/16 06:07:32;;;;;;;8.45;5.97;;;;;;;22.38;100.00;100736.13;5036084;28;20038;-74
2023/06/16 06:09:57;;;;;;;7.85;6.07;;;;;;;22.89;100.00;100736.28;5054116;28;20029;-73
2023/06/16 06:12:23;;;;;;;10.70;6.35;;;;;;;22.87;100.00;100720.00;5053948;28;20032;-72
2023/06/16 06:14:48;;;;;;;8.25;6.00;;;;;;;22.58;100.00;100662.28;5036136;28;20040;-74
2023/06/16 06:17:14;;;;;;;9.80;6.15;;;;;;;22.86;100.00;100685.44;5036444;28;20033;-73
2023/06/16 06:19:39;;;;;;;7.47;5.70;;;;;;;23.44;100.00;100718.66;5054011;28;20033;-72
2023/06/16 06:22:05;;;;;;;8.63;6.13;;;;;;;23.02;100.00;100643.72;5036079;28;20025;-74
2023/06/16 06:24:31;;;;;;;8.35;6.00;;;;;;;23.31;100.00;100681.50;5052412;28;20178;-72
2023/06/16 06:26:57;;;;;;;7.75;5.63;;;;;;;22.98;100.00;100590.38;5053530;28;20078;-72
2023/06/16 06:32:44;;;;;;;8.90;5.75;;;;;;;23.55;100.00;100585.50;5054305;28;20059;-74
2023/06/16 06:35:09;;;;;;;7.68;5.72;;;;;;;23.03;100.00;100529.47;5053166;28;20481;-73
2023/06/16 06:37:35;;;;;;;10.23;5.68;;;;;;;23.50;100.00;100522.66;5053638;28;20031;-74
2023/06/16 06:40:00;;;;;;;10.05;6.15;;;;;;;22.88;100.00;100527.94;5052626;28;20112;-72
2023/06/16 06:45:48;;;;;;;10.65;6.85;;;;;;;23.30;100.00;100537.06;5053982;28;20035;-72
2023/06/16 06:51:35;;;;;;;12.02;7.22;;;;;;;22.98;100.00;100466.69;5053862;28;20102;-72
2023/06/16 06:54:01;;;;;;;11.15;7.22;;;;;;;23.04;100.00;100479.22;5051874;28;20029;-74
2023/06/16 06:56:26;;;;;;;14.10;8.30;;;;;;;23.52;100.00;100563.16;5051721;28;20119;-72
2023/06/16 06:58:52;;;;;;;10.85;7.40;;;;;;;22.95;100.00;100523.16;5051721;28;20102;-72
2023/06/16 07:04:39;;;;;;;9.27;6.97;;;;;;;23.07;100.00;100466.06;5053469;28;20517;-74
2023/06/16 07:10:29;;;;;;;9.77;6.93;;;;;;;23.45;100.00;100497.06;5053409;28;20036;-72
2023/06/16 07:12:55;;;;;;;11.38;7.15;;;;;;;22.93;100.00;100463.63;5053393;28;20517;-74
2023/06/16 07:15:20;;;;;;;9.52;7.00;;;;;;;23.53;100.00;100499.91;5052757;28;20049;-72
2023/06/16 07:17:46;;;;;;;10.40;6.95;;;;;;;24.00;100.00;100514.59;5052738;28;20021;-72
2023/06/16 07:20:11;;;;;;;11.10;7.47;;;;;;;23.55;100.00;100486.81;5053062;28;20029;-72
2023/06/16 07:22:37;;;;;;;9.40;7.10;;;;;;;24.24;100.00;100496.34;5056468;28;20028;-76
2023/06/16 07:25:02;;;;;;;11.32;7.80;;;;;;;23.93;100.00;100445.81;5037828;28;20102;-73
2023/06/16 07:27:28;;;;;;;12.23;7.28;;;;;;;23.91;100.00;100482.31;5061395;28;20032;-72
2023/06/16 07:29:53;;;;;;;8.98;7.32;;;;;;;23.54;100.00;100435.81;5057276;28;20566;-72
2023/06/16 07:32:19;;;;;;;11.02;7.00;;;;;;;23.79;100.00;100487.63;5053077;28;20021;-73
2023/06/16 07:34:45;;;;;;;18.45;11.35;;;;;;;23.76;100.00;100480.03;5053050;28;20048;-72
2023/06/16 07:40:31;;;;;;;11.85;8.10;;;;;;;23.58;100.00;100414.72;5053088;28;20040;-72
2023/06/16 07:46:18;;;;;;;13.65;10.13;;;;;;;23.86;100.00;100423.84;5053125;28;20055;-73
2023/06/16 07:48:44;;;;;;;13.45;9.35;;;;;;;24.16;100.00;100491.72;5033570;28;20451;-72
2023/06/16 07:51:10;;;;;;;13.93;9.80;;;;;;;24.53;100.00;100474.94;5052958;28;20029;-72
2023/06/16 07:53:36;;;;;;;10.68;8.65;;;;;;;23.95;100.00;100360.78;5051131;28;20091;-72
2023/06/16 07:56:02;;;;;;;13.48;9.27;;;;;;;24.31;100.00;100451.56;5051179;28;20064;-72
2023/06/16 07:58:28;;;;;;;14.20;9.45;;;;;;;24.23;100.00;100453.91;5052252;28;20028;-72
2023/06/16 08:00:53;;;;;;;10.32;9.32;;;;;;;;;;5052006;28;20107;-72
2023/06/16 08:03:19;;;;;;;18.13;9.93;;;;;;;24.48;100.00;100447.66;5052521;28;20032;-72
2023/06/16 08:05:44;;;;;;;15.00;9.80;;;;;;;23.38;100.00;100355.66;5050751;28;20295;-73
2023/06/16 08:08:10;;;;;;;15.85;10.43;;;;;;;24.46;100.00;100423.56;5051901;28;20040;-72
2023/06/16 08:10:35;;;;;;;12.38;10.77;;;;;;;24.23;100.00;100420.13;5052332;28;20017;-72
2023/06/16 08:13:01;;;;;;;14.52;11.05;;;;;;;24.07;100.00;100378.91;5052215;28;20024;-72
2023/06/16 08:15:26;;;;;;;16.08;10.48;;;;;;;24.49;100.00;100355.69;5051772;28;20375;-72
2023/06/16 08:17:51;;;;;;;13.30;11.25;;;;;;;25.08;100.00;100350.91;5034071;28;20037;-72
2023/06/16 08:20:17;;;;;;;15.63;11.60;;;;;;;25.28;100.00;100343.09;5051739;28;20032;-72
2023/06/16 08:22:42;;;;;;;15.20;12.05;;;;;;;25.20;100.00;100394.97;5051234;28;20037;-72
2023/06/16 08:25:08;;;;;;;12.07;10.80;;;;;;;25.43;100.00;100362.66;5052167;28;20159;-73
2023/06/16 08:27:34;;;;;;;14.20;12.10;;;;;;;25.86;100.00;100301.72;5050506;28;20070;-75
2023/06/16 08:29:59;;;;;;;16.15;11.23;;;;;;;26.36;100.00;100319.06;5052198;28;20021;-72
2023/06/16 08:32:25;;;;;;;13.40;10.55;;;;;;;26.32;100.00;100236.81;5051375;28;20025;-72
2023/06/16 08:34:50;;;;;;;13.38;10.50;;;;;;;25.37;100.00;100276.41;5051612;28;20021;-73
2023/06/16 08:37:16;;;;;;;14.50;10.88;;;;;;;26.10;100.00;100219.66;5052092;28;20029;-73
2023/06/16 08:43:11;;;;;;;15.00;10.60;;;;;;;26.35;100.00;100164.34;5052291;28;20131;-72
2023/06/16 08:45:37;;;;;;;14.77;11.70;;;;;;;25.82;100.00;100206.53;5050389;28;20025;-72
2023/06/16 08:48:04;;;;;;;14.52;11.93;;;;;;;26.08;100.00;100262.47;5049981;28;20025;-72
2023/06/16 08:50:29;;;;;;;17.63;9.50;;;;;;;26.10;100.00;100188.38;5052269;28;20025;-72
2023/06/16 08:52:57;;;;;;;13.82;9.55;;;;;;;25.02;100.00;100195.25;5050115;28;20416;-72
2023/06/16 08:55:25;;;;;;;10.43;8.98;;;;;;;25.86;100.00;100211.34;5051881;28;20028;-72
2023/06/16 08:57:52;;;;;;;14.90;8.30;;;;;;;26.83;100.00;100176.50;5050279;28;20021;-72
2023/06/16 09:03:39;;;;;;;10.90;7.60;;;;;;;26.30;100.00;100161.34;5056029;28;20031;-72
2023/06/16 09:09:26;;;;;;;11.80;7.55;;;;;;;27.02;100.00;100085.91;5055803;28;20494;-74
2023/06/16 09:12:08;;;;;;;11.85;7.47;;;;;;;26.28;100.00;100111.13;5055052;28;20021;-72
2023/06/16 09:14:37;;;;;;;10.02;7.35;;;;;;;26.55;100.00;100090.31;5054154;28;20021;-72
2023/06/16 09:20:24;;;;;;;;;;;;;;;26.46;100.00;100077.31;5056113;28;20040;-72
2023/06/16 09:23:04;;;;;;;8.93;7.10;;;;;;;25.76;100.00;100095.88;5053286;28;20011;-72
2023/06/16 09:25:33;;;;;;;9.43;6.88;;;;;;;25.33;100.00;100087.53;5055385;28;20475;-72
2023/06/16 09:31:23;;;;;;;12.73;6.57;;;;;;;25.42;100.00;100073.75;5055522;28;20036;-73
2023/06/16 09:37:10;;;;;;;;;;;;;;;25.22;100.00;100074.63;5055965;28;20032;-72
2023/06/16 09:39:36;;;;;;;9.80;6.53;;;;;;;25.07;100.00;100086.38;5036835;28;20278;-71
2023/06/16 09:42:02;;;;;;;10.15;7.25;;;;;;;24.71;100.00;100039.13;5054556;28;20090;-69
2023/06/16 09:44:29;;;;;;;8.73;7.00;;;;;;;24.66;100.00;100017.06;5054140;28;20091;-72
2023/06/16 09:46:58;;;;;;;9.57;6.93;;;;;;;24.82;100.00;100013.03;5052490;28;20029;-71
2023/06/16 09:49:25;;;;;;;13.10;7.70;;;;;;;25.28;100.00;100012.44;5054718;28;20029;-68
2023/06/16 09:51:58;;;;;;;8.32;6.85;;;;;;;25.25;100.00;100058.75;5055128;28;20021;-70
2023/06/16 09:54:26;;;;;;;8.02;5.90;;;;;;;25.31;100.00;99978.34;5053204;28;20493;-71
2023/06/16 09:56:58;;;;;;;14.40;5.90;;;;;;;25.30;100.00;100033.13;5054828;28;20032;-72
2023/06/16 09:59:26;;;;;;;9.63;5.68;;;;;;;25.06;100.00;99965.03;5053224;28;20025;-72
2023/06/16 10:01:54;;;;;;;8.73;5.65;;;;;;;25.38;100.00;100015.06;5054520;28;20024;-71
2023/06/16 10:04:21;;;;;;;7.35;5.32;;;;;;;25.28;100.00;100006.41;5054103;28;20029;-71
2023/06/16 10:06:52;;;;;;;7.90;5.18;;;;;;;25.52;100.00;100010.31;5054195;28;20025;-71
2023/06/16 10:12:48;;;;;;;7.60;5.53;;;;;;;25.08;100.00;99932.69;5054010;28;20395;-73
2023/06/16 10:19:00;;;;;;;9.30;5.40;;;;;;;25.03;100.00;99919.28;5046611;28;20082;-74
2023/06/16 10:21:26;;;;;;;9.00;5.45;;;;;;;25.42;100.00;99930.53;5052798;28;20040;-72
2023/06/16 10:27:13;;;;;;;11.60;5.50;;;;;;;25.40;100.00;99972.34;5053987;28;20123;-72
2023/06/16 10:29:40;;;;;;;9.88;5.40;;;;;;;25.18;100.00;99956.94;5035406;28;20045;-72
2023/06/16 10:32:06;;;;;;;9.43;5.53;;;;;;;25.49;100.00;99955.06;5054004;28;20100;-73
2023/06/16 10:34:56;;;;;;;8.73;5.80;;;;;;;25.67;100.00;99964.63;5052147;28;20029;-73
2023/06/16 10:37:24;;;;;;;9.63;6.00;;;;;;;25.51;100.00;99947.94;5054015;28;20025;-73
2023/06/16 10:39:54;;;;;;;8.18;5.55;;;;;;;25.48;100.00;99954.25;5052115;28;20033;-73
2023/06/16 10:42:19;;;;;;;10.10;5.75;;;;;;;25.37;100.00;99899.69;5053773;28;20085;-73
2023/06/16 10:44:45;;;;;;;9.90;5.25;;;;;;;25.78;100.00;99940.22;5053562;28;20024;-72
2023/06/16 10:47:10;;;;;;;7.95;5.55;;;;;;;26.06;100.00;99934.16;5051924;28;20104;-72
2023/06/16 10:49:57;;;;;;;12.75;6.03;;;;;;;26.50;100.00;99880.41;5053560;28;20025;-73
2023/06/16 10:52:28;;;;;;;11.63;6.60;;;;;;;26.85;100.00;99840.50;5052198;28;20065;-72
2023/06/16 10:58:16;;;;;;;8.38;5.70;;;;;;;27.44;100.00;99754.47;5053721;28;20087;-73
2023/06/16 11:04:03;;;;;;;10.60;5.00;;;;;;;27.00;100.00;99632.81;5053258;28;20036;-72
2023/06/16 11:07:03;;;;;;;7.13;4.47;;;;;;;27.98;100.00;99686.09;5051380;28;20020;-72
2023/06/16 11:12:51;;;;;;;;;;;;;;;28.16;100.00;99639.69;5053517;28;20055;-71
2023/06/16 11:18:38;;;;;;;8.50;3.90;;;;;;;27.31;100.00;99553.78;5051666;28;20059;-72
2023/06/16 11:21:07;;;;;;;6.25;3.97;;;;;;;27.90;100.00;99588.50;5051633;28;20033;-71
2023/06/16 11:23:34;;;;;;;8.02;4.10;;;;;;;27.78;100.00;99601.06;5047899;28;20033;-72
2023/06/16 11:26:11;;;;;;;9.10;4.50;;;;;;;27.63;100.00;99597.47;5052450;28;20028;-72
2023/06/16 11:28:41;;;;;;;9.52;4.53;;;;;;;27.64;100.00;99582.59;5052978;28;20025;-71
2023/06/16 11:34:28;;;;;;;;;;;;;;;27.78;100.00;99568.88;5053077;28;20498;-71
2023/06/16 11:36:54;;;;;;;9.68;4.88;;;;;;;28.34;100.00;99513.13;5034569;28;19905;-71
2023/06/16 11:39:20;;;;;;;9.55;4.05;;;;;;;28.74;100.00;99479.81;5051297;28;20390;-71
2023/06/16 11:41:46;;;;;;;9.38;4.53;;;;;;;27.39;100.00;99458.97;5050920;28;20429;-71
2023/06/16 11:47:33;;;;;;;8.38;4.15;;;;;;;26.67;100.00;99409.16;5052710;28;20036;-71
2023/06/16 11:49:58;;;;;;;7.70;4.90;;;;;;;26.85;100.00;99436.81;5050860;28;20028;-71
2023/06/16 11:52:24;;;;;;;9.85;4.65;;;;;;;26.58;100.00;99469.13;5050307;28;20033;-71
2023/06/16 11:54:49;;;;;;;8.88;4.47;;;;;;;26.27;100.00;99404.63;5051923;28;20028;-71
2023/06/16 12:00:36;;;;;;;;;;;;;;;26.38;100.00;99474.78;5066903;28;20032;-71
2023/06/16 12:03:03;;;;;;;8.90;4.75;;;;;;;25.93;100.00;99373.31;5055670;28;19909;-71
2023/06/16 12:05:30;;;;;;;12.38;5.15;;;;;;;26.07;100.00;99430.09;5051094;28;20031;-73
2023/06/16 12:07:56;;;;;;;7.53;4.68;;;;;;;26.05;100.00;99428.63;5052524;28;20029;-72
2023/06/16 12:10:25;;;;;;;11.00;5.20;;;;;;;26.04;100.00;99430.41;5051710;28;20032;-72
2023/06/16 12:12:50;;;;;;;8.75;5.15;;;;;;;25.49;100.00;99353.53;5052052;28;20029;-72
2023/06/16 12:15:20;;;;;;;11.20;5.43;;;;;;;25.24;100.00;99336.06;5050974;28;20107;-72
2023/06/16 12:17:49;;;;;;;10.57;5.95;;;;;;;25.56;100.00;99373.59;5051809;28;20076;-72
2023/06/16 12:20:16;;;;;;;8.18;5.25;;;;;;;25.54;100.00;99403.34;5050846;28;20024;-72
2023/06/16 12:22:44;;;;;;;10.38;5.13;;;;;;;25.50;100.00;99433.28;5051004;28;20025;-72
2023/06/16 12:25:11;;;;;;;9.23;4.78;;;;;;;26.02;100.00;99454.97;5050757;28;20028;-72
2023/06/16 12:27:36;;;;;;;7.82;5.35;;;;;;;25.51;100.00;99409.69;5050509;28;20472;-73
2023/06/16 12:30:03;;;;;;;7.60;5.30;;;;;;;25.22;100.00;99356.22;5051249;28;20025;-73
2023/06/16 12:32:34;;;;;;;8.85;5.57;;;;;;;26.14;100.00;99428.53;5050882;28;20020;-72
2023/06/16 12:38:31;;;;;;;10.63;5.45;;;;;;;26.16;100.00;99410.13;5056216;28;20082;-72
2023/06/16 12:40:57;;;;;;;8.52;4.88;;;;;;;26.23;100.00;99411.13;5055817;28;20021;-72
2023/06/16 12:43:24;;;;;;;7.70;4.88;;;;;;;26.05;100.00;99452.88;5056166;28;20028;-72
2023/06/16 12:45:50;;;;;;;11.80;4.95;;;;;;;25.65;100.00;99385.69;5055934;28;20036;-72
2023/06/16 12:48:16;;;;;;;10.75;5.03;;;;;;;26.06;100.00;99365.09;5055514;28;20029;-72
2023/06/16 12:50:41;;;;;;;12.20;5.45;;;;;;;26.00;100.00;99374.34;5053697;28;20027;-72
2023/06/16 12:53:06;;;;;;;10.07;5.65;;;;;;;25.88;100.00;99328.69;5055232;28;20391;-72
2023/06/16 12:58:53;;;;;;;8.30;4.97;;;;;;;26.13;100.00;99340.03;5055895;28;20043;-72
2023/06/16 13:01:19;;;;;;;11.27;5.10;;;;;;;26.10;100.00;99356.84;5055444;28;20016;-72
2023/06/16 13:03:46;;;;;;;10.65;5.10;;;;;;;25.93;100.00;99362.09;5055281;28;20390;-73
2023/06/16 13:06:14;;;;;;;14.02;5.25;;;;;;;26.09;100.00;99409.09;5055746;28;20020;-72
2023/06/16 13:08:42;;;;;;;9.13;5.18;;;;;;;25.86;100.00;99364.50;5053727;28;20025;-72
2023/06/16 13:11:08;;;;;;;9.93;4.78;;;;;;;25.87;100.00;99360.91;5037410;28;20029;-72
2023/06/16 13:13:33;;;;;;;7.93;4.65;;;;;;;26.14;100.00;99412.91;5055256;28;20029;-73
2023/06/16 13:15:58;;;;;;;10.02;5.10;;;;;;;25.79;100.00;99322.63;5054041;28;20445;-71